sensor_id;sensor_type;location;lat;lon;timestamp;P1;durP1;ratioP1;P2;durP2;ratioP2
53519;SDS011;39397;53.204;5.778;2023-04-03T00:00:49;4.45;;;1.20;;
53519;SDS011;39397;53.204;5.778;2023-04-03T00:03:15;4.30;;;1.30;;
53519;SDS011;39397;53.204;5.778;2023-04-03T00:05:41;5.72;;;1.40;;
53519;SDS011;39397;53.204;5.778;2023-04-03T00:08:07;3.70;;;1.33;;
53519;SDS011;39397;53.204;5.778;2023-04-03T00:10:34;4.05;;;1.25;;
53519;SDS011;39397;53.204;5.778;2023-04-03T00:13:01;5.43;;;1.45;;
53519;SDS011;39397;53.204;5.778;2023-04-03T00:15:28;3.22;;;1.45;;
53519;SDS011;39397;53.204;5.778;2023-04-03T00:17:53;5.60;;;1.35;;
53519;SDS011;39397;53.204;5.778;2023-04-03T00:20:19;2.97;;;1.08;;
53519;SDS011;39397;53.204;5.778;2023-04-03T00:22:46;5.80;;;1.60;;
53519;SDS011;39397;53.204;5.778;2023-04-03T00:25:11;6.88;;;1.70;;
53519;SDS011;39397;53.204;5.778;2023-04-03T00:27:38;6.13;;;2.00;;
53519;SDS011;39397;53.204;5.778;2023-04-03T00:30:04;4.55;;;1.58;;
53519;SDS011;39397;53.204;5.778;2023-04-03T00:32:31;6.32;;;1.60;;
53519;SDS011;39397;53.204;5.778;2023-04-03T00:34:57;5.15;;;1.75;;
53519;SDS011;39397;53.204;5.778;2023-04-03T00:37:23;5.15;;;1.35;;
53519;SDS011;39397;53.204;5.778;2023-04-03T00:39:49;3.40;;;1.23;;
53519;SDS011;39397;53.204;5.778;2023-04-03T00:42:15;7.32;;;2.92;;
53519;SDS011;39397;53.204;5.778;2023-04-03T00:47:09;4.90;;;1.63;;
53519;SDS011;39397;53.204;5.778;2023-04-03T00:49:38;3.88;;;1.58;;
53519;SDS011;39397;53.204;5.778;2023-04-03T00:52:09;4.55;;;1.38;;
53519;SDS011;39397;53.204;5.778;2023-04-03T00:54:40;7.05;;;1.48;;
53519;SDS011;39397;53.204;5.778;2023-04-03T00:57:07;7.38;;;1.73;;
53519;SDS011;39397;53.204;5.778;2023-04-03T00:59:34;4.32;;;1.30;;
53519;SDS011;39397;53.204;5.778;2023-04-03T01:02:03;4.32;;;1.02;;
53519;SDS011;39397;53.204;5.778;2023-04-03T01:04:30;3.65;;;1.52;;
53519;SDS011;39397;53.204;5.778;2023-04-03T01:07:06;4.30;;;1.20;;
53519;SDS011;39397;53.204;5.778;2023-04-03T01:09:32;5.18;;;1.88;;
53519;SDS011;39397;53.204;5.778;2023-04-03T01:14:50;5.07;;;1.15;;
53519;SDS011;39397;53.204;5.778;2023-04-03T01:17:24;4.20;;;1.30;;
53519;SDS011;39397;53.204;5.778;2023-04-03T01:19:55;2.42;;;1.05;;
53519;SDS011;39397;53.204;5.778;2023-04-03T01:22:35;5.45;;;1.13;;
53519;SDS011;39397;53.204;5.778;2023-04-03T01:25:19;4.40;;;0.95;;
53519;SDS011;39397;53.204;5.778;2023-04-03T01:27:45;3.40;;;1.20;;
53519;SDS011;39397;53.204;5.778;2023-04-03T01:30:10;2.67;;;1.00;;
53519;SDS011;39397;53.204;5.778;2023-04-03T01:32:39;3.42;;;0.77;;
53519;SDS011;39397;53.204;5.778;2023-04-03T01:35:06;4.10;;;0.93;;
53519;SDS011;39397;53.204;5.778;2023-04-03T01:37:33;3.72;;;0.90;;
53519;SDS011;39397;53.204;5.778;2023-04-03T01:39:59;2.92;;;1.00;;
53519;SDS011;39397;53.204;5.778;2023-04-03T01:42:25;3.67;;;1.00;;
53519;SDS011;39397;53.204;5.778;2023-04-03T01:44:51;2.78;;;1.60;;
53519;SDS011;39397;53.204;5.778;2023-04-03T01:47:16;2.47;;;0.80;;
53519;SDS011;39397;53.204;5.778;2023-04-03T01:49:42;3.65;;;0.70;;
53519;SDS011;39397;53.204;5.778;2023-04-03T01:52:08;2.17;;;0.95;;
53519;SDS011;39397;53.204;5.778;2023-04-03T01:54:33;4.25;;;0.80;;
53519;SDS011;39397;53.204;5.778;2023-04-03T01:56:59;1.83;;;0.75;;
53519;SDS011;39397;53.204;5.778;2023-04-03T01:59:25;4.35;;;0.88;;
53519;SDS011;39397;53.204;5.778;2023-04-03T02:01:51;2.25;;;0.80;;
53519;SDS011;39397;53.204;5.778;2023-04-03T02:04:16;4.65;;;0.90;;
53519;SDS011;39397;53.204;5.778;2023-04-03T02:06:42;3.67;;;1.08;;
53519;SDS011;39397;53.204;5.778;2023-04-03T02:09:08;2.95;;;0.73;;
53519;SDS011;39397;53.204;5.778;2023-04-03T02:11:34;7.20;;;1.05;;
53519;SDS011;39397;53.204;5.778;2023-04-03T02:13:59;2.85;;;0.95;;
53519;SDS011;39397;53.204;5.778;2023-04-03T02:16:25;5.00;;;1.02;;
53519;SDS011;39397;53.204;5.778;2023-04-03T02:18:51;6.47;;;1.10;;
53519;SDS011;39397;53.204;5.778;2023-04-03T02:21:16;3.28;;;0.88;;
53519;SDS011;39397;53.204;5.778;2023-04-03T02:23:42;3.15;;;0.90;;
53519;SDS011;39397;53.204;5.778;2023-04-03T02:26:12;3.08;;;1.00;;
53519;SDS011;39397;53.204;5.778;2023-04-03T02:28:39;2.90;;;1.13;;
53519;SDS011;39397;53.204;5.778;2023-04-03T02:31:06;3.50;;;1.10;;
53519;SDS011;39397;53.204;5.778;2023-04-03T02:33:32;2.67;;;1.02;;
53519;SDS011;39397;53.204;5.778;2023-04-03T02:35:59;4.03;;;1.30;;
53519;SDS011;39397;53.204;5.778;2023-04-03T02:38:25;5.28;;;2.28;;
53519;SDS011;39397;53.204;5.778;2023-04-03T02:40:51;3.75;;;0.73;;
53519;SDS011;39397;53.204;5.778;2023-04-03T02:43:17;3.10;;;1.23;;
53519;SDS011;39397;53.204;5.778;2023-04-03T02:45:43;5.13;;;1.17;;
53519;SDS011;39397;53.204;5.778;2023-04-03T02:48:08;3.55;;;1.10;;
53519;SDS011;39397;53.204;5.778;2023-04-03T02:50:34;3.63;;;1.25;;
53519;SDS011;39397;53.204;5.778;2023-04-03T02:53:00;5.57;;;1.42;;
53519;SDS011;39397;53.204;5.778;2023-04-03T02:55:26;5.78;;;1.88;;
53519;SDS011;39397;53.204;5.778;2023-04-03T02:57:51;2.92;;;1.02;;
53519;SDS011;39397;53.204;5.778;2023-04-03T03:00:17;4.35;;;1.20;;
53519;SDS011;39397;53.204;5.778;2023-04-03T03:02:43;5.35;;;1.20;;
53519;SDS011;39397;53.204;5.778;2023-04-03T03:05:09;2.25;;;0.95;;
53519;SDS011;39397;53.204;5.778;2023-04-03T03:07:35;4.13;;;1.27;;
53519;SDS011;39397;53.204;5.778;2023-04-03T03:10:00;4.20;;;1.17;;
53519;SDS011;39397;53.204;5.778;2023-04-03T03:12:26;3.38;;;1.13;;
53519;SDS011;39397;53.204;5.778;2023-04-03T03:14:52;4.30;;;1.20;;
53519;SDS011;39397;53.204;5.778;2023-04-03T03:17:17;3.13;;;0.98;;
53519;SDS011;39397;53.204;5.778;2023-04-03T03:19:43;6.60;;;1.63;;
53519;SDS011;39397;53.204;5.778;2023-04-03T03:22:10;3.65;;;1.50;;
53519;SDS011;39397;53.204;5.778;2023-04-03T03:24:36;3.45;;;1.20;;
53519;SDS011;39397;53.204;5.778;2023-04-03T03:27:02;5.68;;;1.17;;
53519;SDS011;39397;53.204;5.778;2023-04-03T03:29:28;6.97;;;3.15;;
53519;SDS011;39397;53.204;5.778;2023-04-03T03:31:53;4.50;;;1.50;;
53519;SDS011;39397;53.204;5.778;2023-04-03T03:34:19;8.05;;;1.42;;
53519;SDS011;39397;53.204;5.778;2023-04-03T03:36:45;4.70;;;1.42;;
53519;SDS011;39397;53.204;5.778;2023-04-03T03:39:10;4.18;;;1.30;;
53519;SDS011;39397;53.204;5.778;2023-04-03T03:41:37;3.60;;;1.40;;
53519;SDS011;39397;53.204;5.778;2023-04-03T03:44:03;5.53;;;1.33;;
53519;SDS011;39397;53.204;5.778;2023-04-03T03:46:29;3.42;;;1.10;;
53519;SDS011;39397;53.204;5.778;2023-04-03T03:48:55;5.70;;;1.40;;
53519;SDS011;39397;53.204;5.778;2023-04-03T03:51:20;4.63;;;1.55;;
53519;SDS011;39397;53.204;5.778;2023-04-03T03:53:46;3.63;;;1.20;;
53519;SDS011;39397;53.204;5.778;2023-04-03T03:56:12;4.70;;;1.00;;
53519;SDS011;39397;53.204;5.778;2023-04-03T03:58:37;5.50;;;1.55;;
53519;SDS011;39397;53.204;5.778;2023-04-03T04:01:04;6.25;;;1.48;;
53519;SDS011;39397;53.204;5.778;2023-04-03T04:03:31;6.20;;;1.67;;
53519;SDS011;39397;53.204;5.778;2023-04-03T04:05:57;3.15;;;1.00;;
53519;SDS011;39397;53.204;5.778;2023-04-03T04:08:22;3.78;;;1.30;;
53519;SDS011;39397;53.204;5.778;2023-04-03T04:10:48;7.07;;;1.30;;
53519;SDS011;39397;53.204;5.778;2023-04-03T04:13:15;5.50;;;1.42;;
53519;SDS011;39397;53.204;5.778;2023-04-03T04:15:42;5.03;;;1.40;;
53519;SDS011;39397;53.204;5.778;2023-04-03T04:18:08;6.38;;;1.77;;
53519;SDS011;39397;53.204;5.778;2023-04-03T04:20:34;5.82;;;1.55;;
53519;SDS011;39397;53.204;5.778;2023-04-03T04:22:59;3.97;;;1.60;;
53519;SDS011;39397;53.204;5.778;2023-04-03T04:25:25;4.25;;;1.27;;
53519;SDS011;39397;53.204;5.778;2023-04-03T04:27:51;7.40;;;1.50;;
53519;SDS011;39397;53.204;5.778;2023-04-03T04:30:16;7.93;;;1.73;;
53519;SDS011;39397;53.204;5.778;2023-04-03T04:32:42;5.40;;;1.50;;
53519;SDS011;39397;53.204;5.778;2023-04-03T04:35:08;5.40;;;1.52;;
53519;SDS011;39397;53.204;5.778;2023-04-03T04:37:34;8.15;;;1.77;;
53519;SDS011;39397;53.204;5.778;2023-04-03T04:40:00;4.50;;;1.40;;
53519;SDS011;39397;53.204;5.778;2023-04-03T04:42:26;4.55;;;1.52;;
53519;SDS011;39397;53.204;5.778;2023-04-03T04:44:52;6.53;;;2.70;;
53519;SDS011;39397;53.204;5.778;2023-04-03T04:47:18;9.13;;;2.15;;
53519;SDS011;39397;53.204;5.778;2023-04-03T04:49:43;3.85;;;1.60;;
53519;SDS011;39397;53.204;5.778;2023-04-03T04:52:10;3.95;;;1.33;;
53519;SDS011;39397;53.204;5.778;2023-04-03T04:54:35;5.18;;;1.60;;
53519;SDS011;39397;53.204;5.778;2023-04-03T04:57:01;6.03;;;1.52;;
53519;SDS011;39397;53.204;5.778;2023-04-03T04:59:27;7.13;;;2.80;;
53519;SDS011;39397;53.204;5.778;2023-04-03T05:01:53;7.88;;;1.77;;
53519;SDS011;39397;53.204;5.778;2023-04-03T05:04:18;7.95;;;1.88;;
53519;SDS011;39397;53.204;5.778;2023-04-03T05:06:44;4.97;;;1.50;;
53519;SDS011;39397;53.204;5.778;2023-04-03T05:09:10;7.72;;;1.80;;
53519;SDS011;39397;53.204;5.778;2023-04-03T05:11:36;6.80;;;1.90;;
53519;SDS011;39397;53.204;5.778;2023-04-03T05:14:01;8.45;;;1.92;;
53519;SDS011;39397;53.204;5.778;2023-04-03T05:16:30;6.65;;;1.67;;
53519;SDS011;39397;53.204;5.778;2023-04-03T05:18:56;6.82;;;2.08;;
53519;SDS011;39397;53.204;5.778;2023-04-03T05:21:21;5.65;;;1.95;;
53519;SDS011;39397;53.204;5.778;2023-04-03T05:23:49;6.10;;;1.63;;
53519;SDS011;39397;53.204;5.778;2023-04-03T05:26:15;6.47;;;2.15;;
53519;SDS011;39397;53.204;5.778;2023-04-03T05:28:41;5.07;;;1.83;;
53519;SDS011;39397;53.204;5.778;2023-04-03T05:31:07;9.15;;;1.85;;
53519;SDS011;39397;53.204;5.778;2023-04-03T05:33:32;3.83;;;1.50;;
53519;SDS011;39397;53.204;5.778;2023-04-03T05:36:01;5.13;;;1.95;;
53519;SDS011;39397;53.204;5.778;2023-04-03T05:38:28;5.10;;;1.75;;
53519;SDS011;39397;53.204;5.778;2023-04-03T05:40:54;7.53;;;2.50;;
53519;SDS011;39397;53.204;5.778;2023-04-03T05:43:20;9.73;;;2.25;;
53519;SDS011;39397;53.204;5.778;2023-04-03T05:45:47;8.10;;;2.15;;
53519;SDS011;39397;53.204;5.778;2023-04-03T05:48:12;7.05;;;1.88;;
53519;SDS011;39397;53.204;5.778;2023-04-03T05:50:38;7.10;;;2.38;;
53519;SDS011;39397;53.204;5.778;2023-04-03T05:53:06;10.10;;;2.25;;
53519;SDS011;39397;53.204;5.778;2023-04-03T05:55:36;7.45;;;1.80;;
53519;SDS011;39397;53.204;5.778;2023-04-03T05:58:01;10.40;;;2.40;;
53519;SDS011;39397;53.204;5.778;2023-04-03T06:00:27;6.10;;;2.17;;
53519;SDS011;39397;53.204;5.778;2023-04-03T06:02:53;7.93;;;1.60;;
53519;SDS011;39397;53.204;5.778;2023-04-03T06:05:18;7.28;;;2.10;;
53519;SDS011;39397;53.204;5.778;2023-04-03T06:07:44;7.65;;;1.90;;
53519;SDS011;39397;53.204;5.778;2023-04-03T06:10:11;4.68;;;1.83;;
53519;SDS011;39397;53.204;5.778;2023-04-03T06:12:37;6.20;;;1.75;;
53519;SDS011;39397;53.204;5.778;2023-04-03T06:15:03;5.30;;;1.88;;
53519;SDS011;39397;53.204;5.778;2023-04-03T06:17:29;6.05;;;1.88;;
53519;SDS011;39397;53.204;5.778;2023-04-03T06:19:55;6.53;;;2.10;;
53519;SDS011;39397;53.204;5.778;2023-04-03T06:22:23;12.73;;;2.13;;
53519;SDS011;39397;53.204;5.778;2023-04-03T06:24:50;6.03;;;1.75;;
53519;SDS011;39397;53.204;5.778;2023-04-03T06:27:16;9.30;;;1.90;;
53519;SDS011;39397;53.204;5.778;2023-04-03T06:29:42;4.53;;;1.58;;
53519;SDS011;39397;53.204;5.778;2023-04-03T06:32:09;7.30;;;1.98;;
53519;SDS011;39397;53.204;5.778;2023-04-03T06:34:34;8.70;;;1.80;;
53519;SDS011;39397;53.204;5.778;2023-04-03T06:37:00;7.25;;;1.70;;
53519;SDS011;39397;53.204;5.778;2023-04-03T06:39:26;8.57;;;2.78;;
53519;SDS011;39397;53.204;5.778;2023-04-03T06:41:52;6.28;;;1.80;;
53519;SDS011;39397;53.204;5.778;2023-04-03T06:44:18;9.02;;;2.10;;
53519;SDS011;39397;53.204;5.778;2023-04-03T06:46:44;6.68;;;1.83;;
53519;SDS011;39397;53.204;5.778;2023-04-03T06:49:11;9.93;;;2.22;;
53519;SDS011;39397;53.204;5.778;2023-04-03T06:51:37;8.18;;;1.73;;
53519;SDS011;39397;53.204;5.778;2023-04-03T06:54:03;11.60;;;3.35;;
53519;SDS011;39397;53.204;5.778;2023-04-03T06:56:30;6.28;;;2.10;;
53519;SDS011;39397;53.204;5.778;2023-04-03T06:58:57;7.82;;;2.10;;
53519;SDS011;39397;53.204;5.778;2023-04-03T07:01:23;9.73;;;2.25;;
53519;SDS011;39397;53.204;5.778;2023-04-03T07:03:51;7.00;;;2.17;;
53519;SDS011;39397;53.204;5.778;2023-04-03T07:06:18;6.90;;;2.35;;
53519;SDS011;39397;53.204;5.778;2023-04-03T07:08:44;6.95;;;1.83;;
53519;SDS011;39397;53.204;5.778;2023-04-03T07:11:10;6.05;;;2.17;;
53519;SDS011;39397;53.204;5.778;2023-04-03T07:13:37;6.53;;;2.00;;
53519;SDS011;39397;53.204;5.778;2023-04-03T07:16:03;6.43;;;1.90;;
53519;SDS011;39397;53.204;5.778;2023-04-03T07:18:30;5.63;;;2.03;;
53519;SDS011;39397;53.204;5.778;2023-04-03T07:20:57;7.53;;;1.98;;
53519;SDS011;39397;53.204;5.778;2023-04-03T07:23:23;8.65;;;2.42;;
53519;SDS011;39397;53.204;5.778;2023-04-03T07:25:49;7.57;;;2.08;;
53519;SDS011;39397;53.204;5.778;2023-04-03T07:28:17;7.07;;;1.95;;
53519;SDS011;39397;53.204;5.778;2023-04-03T07:31:03;6.10;;;1.70;;
53519;SDS011;39397;53.204;5.778;2023-04-03T07:33:33;7.82;;;2.30;;
53519;SDS011;39397;53.204;5.778;2023-04-03T07:36:00;7.45;;;2.63;;
53519;SDS011;39397;53.204;5.778;2023-04-03T07:38:26;8.45;;;2.33;;
53519;SDS011;39397;53.204;5.778;2023-04-03T07:40:52;9.38;;;3.97;;
53519;SDS011;39397;53.204;5.778;2023-04-03T07:43:19;6.32;;;2.10;;
53519;SDS011;39397;53.204;5.778;2023-04-03T07:45:46;5.68;;;2.15;;
53519;SDS011;39397;53.204;5.778;2023-04-03T07:48:16;8.32;;;2.72;;
53519;SDS011;39397;53.204;5.778;2023-04-03T07:50:43;7.05;;;1.70;;
53519;SDS011;39397;53.204;5.778;2023-04-03T07:53:09;6.70;;;1.70;;
53519;SDS011;39397;53.204;5.778;2023-04-03T07:55:35;4.57;;;1.42;;
53519;SDS011;39397;53.204;5.778;2023-04-03T07:58:08;5.43;;;1.90;;
53519;SDS011;39397;53.204;5.778;2023-04-03T08:00:39;6.05;;;1.63;;
53519;SDS011;39397;53.204;5.778;2023-04-03T08:03:06;6.93;;;1.60;;
53519;SDS011;39397;53.204;5.778;2023-04-03T08:05:36;4.20;;;1.30;;
53519;SDS011;39397;53.204;5.778;2023-04-03T08:08:03;4.45;;;1.70;;
53519;SDS011;39397;53.204;5.778;2023-04-03T08:10:29;7.03;;;1.50;;
53519;SDS011;39397;53.204;5.778;2023-04-03T08:12:56;5.57;;;1.40;;
53519;SDS011;39397;53.204;5.778;2023-04-03T08:15:21;6.70;;;1.80;;
53519;SDS011;39397;53.204;5.778;2023-04-03T08:17:47;4.93;;;1.50;;
53519;SDS011;39397;53.204;5.778;2023-04-03T08:20:13;4.55;;;1.60;;
53519;SDS011;39397;53.204;5.778;2023-04-03T08:22:39;6.07;;;2.83;;
53519;SDS011;39397;53.204;5.778;2023-04-03T08:25:05;5.38;;;1.40;;
53519;SDS011;39397;53.204;5.778;2023-04-03T08:27:31;3.08;;;1.33;;
53519;SDS011;39397;53.204;5.778;2023-04-03T08:29:58;4.72;;;1.50;;
53519;SDS011;39397;53.204;5.778;2023-04-03T08:32:23;5.70;;;1.98;;
53519;SDS011;39397;53.204;5.778;2023-04-03T08:34:49;4.35;;;1.40;;
53519;SDS011;39397;53.204;5.778;2023-04-03T08:37:15;4.65;;;1.50;;
53519;SDS011;39397;53.204;5.778;2023-04-03T08:39:41;4.78;;;1.77;;
53519;SDS011;39397;53.204;5.778;2023-04-03T08:42:16;4.60;;;2.00;;
53519;SDS011;39397;53.204;5.778;2023-04-03T08:45:10;7.03;;;1.55;;
53519;SDS011;39397;53.204;5.778;2023-04-03T08:47:38;4.22;;;1.35;;
53519;SDS011;39397;53.204;5.778;2023-04-03T08:50:30;4.70;;;1.35;;
53519;SDS011;39397;53.204;5.778;2023-04-03T08:53:04;6.85;;;1.50;;
53519;SDS011;39397;53.204;5.778;2023-04-03T08:55:40;3.03;;;1.13;;
53519;SDS011;39397;53.204;5.778;2023-04-03T08:58:19;6.03;;;1.92;;
53519;SDS011;39397;53.204;5.778;2023-04-03T09:01:02;5.82;;;1.48;;
53519;SDS011;39397;53.204;5.778;2023-04-03T09:03:38;3.67;;;1.30;;
53519;SDS011;39397;53.204;5.778;2023-04-03T09:06:11;3.95;;;1.40;;
53519;SDS011;39397;53.204;5.778;2023-04-03T09:08:43;5.50;;;1.10;;
53519;SDS011;39397;53.204;5.778;2023-04-03T09:19:58;2.67;;;0.95;;
53519;SDS011;39397;53.204;5.778;2023-04-03T09:22:46;4.50;;;1.00;;
53519;SDS011;39397;53.204;5.778;2023-04-03T09:25:18;3.03;;;1.15;;
53519;SDS011;39397;53.204;5.778;2023-04-03T09:27:49;3.38;;;1.00;;
53519;SDS011;39397;53.204;5.778;2023-04-03T09:30:23;1.85;;;0.88;;
53519;SDS011;39397;53.204;5.778;2023-04-03T09:32:51;4.55;;;0.90;;
53519;SDS011;39397;53.204;5.778;2023-04-03T09:35:20;1.73;;;0.70;;
53519;SDS011;39397;53.204;5.778;2023-04-03T09:40:39;1.15;;;0.55;;
53519;SDS011;39397;53.204;5.778;2023-04-03T09:43:20;3.75;;;0.98;;
53519;SDS011;39397;53.204;5.778;2023-04-03T09:45:51;2.85;;;0.82;;
53519;SDS011;39397;53.204;5.778;2023-04-03T09:48:25;3.45;;;0.80;;
53519;SDS011;39397;53.204;5.778;2023-04-03T09:50:57;2.20;;;0.70;;
53519;SDS011;39397;53.204;5.778;2023-04-03T09:55:56;2.03;;;0.70;;
53519;SDS011;39397;53.204;5.778;2023-04-03T09:58:29;2.30;;;0.82;;
53519;SDS011;39397;53.204;5.778;2023-04-03T10:00:59;5.18;;;1.02;;
53519;SDS011;39397;53.204;5.778;2023-04-03T10:03:29;2.60;;;0.80;;
53519;SDS011;39397;53.204;5.778;2023-04-03T10:05:57;2.83;;;0.82;;
53519;SDS011;39397;53.204;5.778;2023-04-03T10:08:31;1.45;;;0.60;;
53519;SDS011;39397;53.204;5.778;2023-04-03T10:11:17;2.47;;;0.70;;
53519;SDS011;39397;53.204;5.778;2023-04-03T10:13:56;2.55;;;1.08;;
53519;SDS011;39397;53.204;5.778;2023-04-03T10:19:05;2.17;;;0.88;;
53519;SDS011;39397;53.204;5.778;2023-04-03T10:22:27;2.05;;;0.65;;
53519;SDS011;39397;53.204;5.778;2023-04-03T10:25:17;2.45;;;0.90;;
53519;SDS011;39397;53.204;5.778;2023-04-03T10:35:30;2.60;;;0.70;;
53519;SDS011;39397;53.204;5.778;2023-04-03T10:38:24;2.92;;;0.93;;
53519;SDS011;39397;53.204;5.778;2023-04-03T10:41:02;1.95;;;0.55;;
53519;SDS011;39397;53.204;5.778;2023-04-03T10:43:39;1.75;;;0.70;;
53519;SDS011;39397;53.204;5.778;2023-04-03T10:49:01;2.75;;;0.73;;
53519;SDS011;39397;53.204;5.778;2023-04-03T10:51:51;2.30;;;0.63;;
53519;SDS011;39397;53.204;5.778;2023-04-03T10:54:32;2.75;;;0.82;;
53519;SDS011;39397;53.204;5.778;2023-04-03T10:57:09;3.17;;;0.90;;
53519;SDS011;39397;53.204;5.778;2023-04-03T10:59:40;2.63;;;0.80;;
53519;SDS011;39397;53.204;5.778;2023-04-03T11:04:54;3.13;;;0.75;;
53519;SDS011;39397;53.204;5.778;2023-04-03T11:07:44;3.42;;;1.40;;
53519;SDS011;39397;53.204;5.778;2023-04-03T11:10:17;3.65;;;1.00;;
53519;SDS011;39397;53.204;5.778;2023-04-03T11:12:51;2.25;;;0.80;;
53519;SDS011;39397;53.204;5.778;2023-04-03T11:15:23;2.30;;;0.90;;
53519;SDS011;39397;53.204;5.778;2023-04-03T11:20:20;2.90;;;0.80;;
53519;SDS011;39397;53.204;5.778;2023-04-03T11:23:16;5.78;;;1.42;;
53519;SDS011;39397;53.204;5.778;2023-04-03T11:25:44;1.98;;;0.88;;
53519;SDS011;39397;53.204;5.778;2023-04-03T11:28:14;1.85;;;0.70;;
53519;SDS011;39397;53.204;5.778;2023-04-03T11:33:24;3.28;;;0.75;;
53519;SDS011;39397;53.204;5.778;2023-04-03T11:38:58;2.00;;;0.70;;
53519;SDS011;39397;53.204;5.778;2023-04-03T11:41:28;2.63;;;0.75;;
53519;SDS011;39397;53.204;5.778;2023-04-03T11:43:57;2.15;;;0.60;;
53519;SDS011;39397;53.204;5.778;2023-04-03T11:46:48;2.03;;;0.80;;
53519;SDS011;39397;53.204;5.778;2023-04-03T12:16:06;3.05;;;0.77;;
53519;SDS011;39397;53.204;5.778;2023-04-03T12:21:19;2.65;;;0.70;;
53519;SDS011;39397;53.204;5.778;2023-04-03T12:26:50;3.35;;;1.00;;
53519;SDS011;39397;53.204;5.778;2023-04-03T12:40:26;5.13;;;0.98;;
53519;SDS011;39397;53.204;5.778;2023-04-03T12:45:40;3.13;;;0.93;;
53519;SDS011;39397;53.204;5.778;2023-04-03T12:48:08;3.40;;;0.80;;
53519;SDS011;39397;53.204;5.778;2023-04-03T12:50:41;1.83;;;0.60;;
53519;SDS011;39397;53.204;5.778;2023-04-03T12:53:13;2.05;;;0.75;;
53519;SDS011;39397;53.204;5.778;2023-04-03T12:55:43;2.63;;;0.93;;
53519;SDS011;39397;53.204;5.778;2023-04-03T12:58:22;3.22;;;1.02;;
53519;SDS011;39397;53.204;5.778;2023-04-03T13:01:00;3.42;;;0.90;;
53519;SDS011;39397;53.204;5.778;2023-04-03T13:03:27;4.22;;;0.90;;
53519;SDS011;39397;53.204;5.778;2023-04-03T13:06:00;2.75;;;0.85;;
53519;SDS011;39397;53.204;5.778;2023-04-03T13:08:28;6.30;;;1.50;;
53519;SDS011;39397;53.204;5.778;2023-04-03T13:10:57;4.90;;;0.95;;
53519;SDS011;39397;53.204;5.778;2023-04-03T13:13:27;2.67;;;0.80;;
53519;SDS011;39397;53.204;5.778;2023-04-03T13:15:54;3.30;;;1.52;;
53519;SDS011;39397;53.204;5.778;2023-04-03T13:18:31;3.33;;;0.80;;
53519;SDS011;39397;53.204;5.778;2023-04-03T13:21:00;3.38;;;1.10;;
53519;SDS011;39397;53.204;5.778;2023-04-03T13:23:31;2.13;;;0.73;;
53519;SDS011;39397;53.204;5.778;2023-04-03T13:25:59;2.88;;;0.80;;
53519;SDS011;39397;53.204;5.778;2023-04-03T13:28:29;2.30;;;0.82;;
53519;SDS011;39397;53.204;5.778;2023-04-03T13:30:59;3.83;;;1.13;;
53519;SDS011;39397;53.204;5.778;2023-04-03T13:33:32;4.72;;;1.00;;
53519;SDS011;39397;53.204;5.778;2023-04-03T13:36:22;3.47;;;1.00;;
53519;SDS011;39397;53.204;5.778;2023-04-03T13:39:37;4.60;;;1.10;;
53519;SDS011;39397;53.204;5.778;2023-04-03T13:41:45;3.20;;;1.00;;
53519;SDS011;39397;53.204;5.778;2023-04-03T13:46:55;5.15;;;1.13;;
53519;SDS011;39397;53.204;5.778;2023-04-03T13:52:20;4.07;;;1.60;;
53519;SDS011;39397;53.204;5.778;2023-04-03T13:54:57;3.88;;;1.90;;
53519;SDS011;39397;53.204;5.778;2023-04-03T13:57:26;3.53;;;1.08;;
53519;SDS011;39397;53.204;5.778;2023-04-03T13:59:52;3.20;;;0.90;;
53519;SDS011;39397;53.204;5.778;2023-04-03T14:02:32;4.32;;;0.77;;
53519;SDS011;39397;53.204;5.778;2023-04-03T14:04:59;4.28;;;1.13;;
53519;SDS011;39397;53.204;5.778;2023-04-03T14:07:27;5.18;;;0.90;;
53519;SDS011;39397;53.204;5.778;2023-04-03T14:09:54;2.63;;;1.00;;
53519;SDS011;39397;53.204;5.778;2023-04-03T14:14:55;3.17;;;0.80;;
53519;SDS011;39397;53.204;5.778;2023-04-03T14:17:22;2.47;;;0.63;;
53519;SDS011;39397;53.204;5.778;2023-04-03T14:19:50;3.00;;;0.90;;
53519;SDS011;39397;53.204;5.778;2023-04-03T14:22:21;1.90;;;0.85;;
53519;SDS011;39397;53.204;5.778;2023-04-03T14:24:48;2.15;;;0.98;;
53519;SDS011;39397;53.204;5.778;2023-04-03T14:29:49;2.92;;;0.93;;
53519;SDS011;39397;53.204;5.778;2023-04-03T14:32:17;1.88;;;0.82;;
53519;SDS011;39397;53.204;5.778;2023-04-03T14:34:44;3.45;;;0.93;;
53519;SDS011;39397;53.204;5.778;2023-04-03T14:37:11;3.38;;;1.00;;
53519;SDS011;39397;53.204;5.778;2023-04-03T14:39:39;4.63;;;0.80;;
53519;SDS011;39397;53.204;5.778;2023-04-03T14:42:05;2.58;;;0.90;;
53519;SDS011;39397;53.204;5.778;2023-04-03T14:44:31;2.72;;;0.88;;
53519;SDS011;39397;53.204;5.778;2023-04-03T14:46:57;3.78;;;1.25;;
53519;SDS011;39397;53.204;5.778;2023-04-03T14:49:26;2.40;;;0.98;;
53519;SDS011;39397;53.204;5.778;2023-04-03T14:51:53;3.47;;;0.80;;
53519;SDS011;39397;53.204;5.778;2023-04-03T14:54:22;3.30;;;1.63;;
53519;SDS011;39397;53.204;5.778;2023-04-03T14:56:52;2.70;;;1.10;;
53519;SDS011;39397;53.204;5.778;2023-04-03T14:59:18;3.90;;;1.15;;
53519;SDS011;39397;53.204;5.778;2023-04-03T15:01:46;2.65;;;0.90;;
53519;SDS011;39397;53.204;5.778;2023-04-03T15:04:13;1.70;;;0.80;;
53519;SDS011;39397;53.204;5.778;2023-04-03T15:06:40;2.75;;;1.10;;
53519;SDS011;39397;53.204;5.778;2023-04-03T15:09:20;2.88;;;1.00;;
53519;SDS011;39397;53.204;5.778;2023-04-03T15:11:50;3.92;;;1.30;;
53519;SDS011;39397;53.204;5.778;2023-04-03T15:14:17;2.58;;;1.10;;
53519;SDS011;39397;53.204;5.778;2023-04-03T15:16:43;3.90;;;1.45;;
53519;SDS011;39397;53.204;5.778;2023-04-03T15:19:09;4.75;;;1.30;;
53519;SDS011;39397;53.204;5.778;2023-04-03T15:21:36;3.55;;;1.08;;
53519;SDS011;39397;53.204;5.778;2023-04-03T15:24:02;2.97;;;0.95;;
53519;SDS011;39397;53.204;5.778;2023-04-03T15:26:29;2.78;;;1.13;;
53519;SDS011;39397;53.204;5.778;2023-04-03T15:28:55;4.40;;;1.33;;
53519;SDS011;39397;53.204;5.778;2023-04-03T15:31:21;4.07;;;1.20;;
53519;SDS011;39397;53.204;5.778;2023-04-03T15:33:47;5.13;;;1.08;;
53519;SDS011;39397;53.204;5.778;2023-04-03T15:36:12;4.25;;;1.45;;
53519;SDS011;39397;53.204;5.778;2023-04-03T15:38:38;3.90;;;1.20;;
53519;SDS011;39397;53.204;5.778;2023-04-03T15:41:04;3.08;;;1.10;;
53519;SDS011;39397;53.204;5.778;2023-04-03T15:43:30;4.97;;;1.30;;
53519;SDS011;39397;53.204;5.778;2023-04-03T15:45:58;4.95;;;1.38;;
53519;SDS011;39397;53.204;5.778;2023-04-03T15:48:25;4.90;;;1.30;;
53519;SDS011;39397;53.204;5.778;2023-04-03T15:50:52;5.75;;;1.15;;
53519;SDS011;39397;53.204;5.778;2023-04-03T15:53:18;4.03;;;1.02;;
53519;SDS011;39397;53.204;5.778;2023-04-03T15:55:44;4.43;;;1.10;;
53519;SDS011;39397;53.204;5.778;2023-04-03T15:58:09;4.50;;;0.98;;
53519;SDS011;39397;53.204;5.778;2023-04-03T16:00:36;4.72;;;1.30;;
53519;SDS011;39397;53.204;5.778;2023-04-03T16:03:09;2.28;;;0.90;;
53519;SDS011;39397;53.204;5.778;2023-04-03T16:08:12;3.72;;;0.90;;
53519;SDS011;39397;53.204;5.778;2023-04-03T16:10:38;3.20;;;0.88;;
53519;SDS011;39397;53.204;5.778;2023-04-03T16:13:05;3.10;;;0.95;;
53519;SDS011;39397;53.204;5.778;2023-04-03T16:15:31;1.80;;;0.80;;
53519;SDS011;39397;53.204;5.778;2023-04-03T16:17:59;3.97;;;0.82;;
53519;SDS011;39397;53.204;5.778;2023-04-03T16:20:25;2.72;;;1.00;;
53519;SDS011;39397;53.204;5.778;2023-04-03T16:22:51;2.55;;;0.73;;
53519;SDS011;39397;53.204;5.778;2023-04-03T16:25:17;3.38;;;0.73;;
53519;SDS011;39397;53.204;5.778;2023-04-03T16:27:43;2.47;;;0.75;;
53519;SDS011;39397;53.204;5.778;2023-04-03T16:30:09;2.53;;;0.65;;
53519;SDS011;39397;53.204;5.778;2023-04-03T16:32:36;3.15;;;1.20;;
53519;SDS011;39397;53.204;5.778;2023-04-03T16:35:03;3.40;;;0.70;;
53519;SDS011;39397;53.204;5.778;2023-04-03T16:37:30;2.78;;;1.20;;
53519;SDS011;39397;53.204;5.778;2023-04-03T16:39:56;2.05;;;0.77;;